createdAt,value
2023-04-12T01:45:34.778Z,55.83
2023-04-12T01:51:15.887Z,57.95
2023-04-12T01:56:37.947Z,58.22
2023-04-12T02:01:45.468Z,59.75
2023-04-12T02:06:53.181Z,60.87
2023-04-12T02:48:56.580Z,59.83
2023-04-12T03:58:03.131Z,58.62
2023-04-12T04:21:50.263Z,62.37
2023-04-12T04:26:54.485Z,53.62
2023-04-12T04:32:02.575Z,52.54
2023-04-12T04:37:06.530Z,54.33
2023-04-12T04:42:11.272Z,55.70
2023-04-12T04:47:15.912Z,57.49
2023-04-12T04:52:19.996Z,57.26
2023-04-12T04:57:26.958Z,58.70
2023-04-12T05:02:32.594Z,59.96
2023-04-12T05:07:39.037Z,60.37
2023-04-12T05:18:45.293Z,67.35
2023-04-12T05:23:49.653Z,63.48
2023-04-12T05:28:53.982Z,54.11
2023-04-12T05:34:00.409Z,52.89
2023-04-12T05:39:08.443Z,54.63
2023-04-12T05:44:14.012Z,56.12
2023-04-12T05:49:18.431Z,57.21
2023-04-12T05:54:21.879Z,57.92
2023-04-12T05:59:27.888Z,59.17
2023-04-12T06:04:50.826Z,60.09
2023-04-12T06:09:56.861Z,60.70
2023-04-12T06:15:01.308Z,61.33
2023-04-12T06:20:10.228Z,66.91
2023-04-12T06:25:35.482Z,63.25
2023-04-12T06:30:44.384Z,53.70
2023-04-12T06:35:48.854Z,53.32
2023-04-12T06:43:07.167Z,54.96
2023-04-12T06:48:14.425Z,56.01
2023-04-12T06:58:56.436Z,57.79
2023-04-12T07:04:04.461Z,58.73
2023-04-12T07:14:34.872Z,59.85
2023-04-12T07:19:48.185Z,60.76
2023-04-12T07:25:10.367Z,60.98
2023-04-12T07:30:15.007Z,61.29
2023-04-12T07:35:19.520Z,61.63
2023-04-12T07:43:43.641Z,67.41
2023-04-12T07:48:48.333Z,56.56
2023-04-12T07:53:52.563Z,53.23
2023-04-12T08:43:15.296Z,59.85
2023-04-12T08:48:29.556Z,60.19
2023-04-12T08:53:35.138Z,59.92
2023-04-12T08:58:46.364Z,59.63
2023-04-12T09:04:08.217Z,59.24
2023-04-12T09:09:12.848Z,59.06
2023-04-12T09:15:01.053Z,59.25
2023-04-12T09:20:28.920Z,58.80
2023-04-12T09:25:45.884Z,58.76
2023-04-12T09:30:54.279Z,58.78
2023-04-12T09:36:03.383Z,58.18
2023-04-12T09:41:30.884Z,57.60
2023-04-12T09:46:35.269Z,58.99
2023-04-12T09:51:39.627Z,58.26
2023-04-12T09:56:44.487Z,58.27
2023-04-12T10:01:48.106Z,58.06
2023-04-12T10:06:53.110Z,57.65
2023-04-12T10:11:59.610Z,56.06
2023-04-12T10:17:05.880Z,56.21
2023-04-12T10:22:09.578Z,56.32
2023-04-12T10:27:14.100Z,55.56
2023-04-12T10:32:23.157Z,55.34
2023-04-12T10:38:02.272Z,54.94
2023-04-12T10:43:24.755Z,55.33
2023-04-12T10:48:34.081Z,54.75
2023-04-12T10:53:37.730Z,54.54
2023-04-12T10:58:49.404Z,55.44
2023-04-12T11:04:22.314Z,54.80
2023-04-12T11:09:37.807Z,55.04
2023-04-12T11:42:57.511Z,52.82
2023-04-12T11:48:10.140Z,53.07
2023-04-12T11:53:14.085Z,52.80
2023-04-12T11:58:18.746Z,52.86
2023-04-12T12:03:23.495Z,53.57
2023-04-12T12:08:27.477Z,53.42
2023-04-12T12:13:50.374Z,52.98
2023-04-12T12:18:55.150Z,52.70
2023-04-12T12:23:58.887Z,53.60
2023-04-12T12:29:02.887Z,53.16
2023-04-12T12:34:09.102Z,52.78
2023-04-12T12:39:13.388Z,52.40
2023-04-12T12:44:16.980Z,51.92
2023-04-12T12:49:20.465Z,51.55
2023-04-12T12:54:39.568Z,51.80
2023-04-12T12:59:44.947Z,51.75
2023-04-12T13:04:48.550Z,50.98
2023-04-12T13:09:52.441Z,51.88
2023-04-12T13:15:06.927Z,51.56
2023-04-12T13:20:24.524Z,51.61
2023-04-12T13:25:28.104Z,51.40
2023-04-12T13:30:31.999Z,51.11
2023-04-12T13:35:35.581Z,50.53
2023-04-12T13:43:03.233Z,50.86
2023-04-12T13:48:07.353Z,50.99
2023-04-12T13:53:12.947Z,50.94
2023-04-12T13:58:17.080Z,50.76
2023-04-12T14:03:21.351Z,51.06
2023-04-12T14:08:24.706Z,51.10
2023-04-12T14:13:27.902Z,51.28
2023-04-12T14:18:30.959Z,51.74
2023-04-12T14:23:34.014Z,52.45
2023-04-12T14:28:37.052Z,52.83
2023-04-12T14:33:40.032Z,53.07
2023-04-12T14:38:44.170Z,53.31
2023-04-12T14:44:10.399Z,53.11
2023-04-12T14:49:14.410Z,52.98
2023-04-12T14:54:17.806Z,53.05
2023-04-12T14:59:21.887Z,53.29
2023-04-12T15:04:26.655Z,53.90
2023-04-12T15:09:33.908Z,53.51
2023-04-12T15:14:37.452Z,53.25
2023-04-12T15:19:40.705Z,53.58
2023-04-12T15:24:43.728Z,53.18
2023-04-12T15:29:47.276Z,53.38
2023-04-12T15:34:51.353Z,52.70
2023-04-12T15:39:55.279Z,51.89
2023-04-12T15:44:58.712Z,51.13
2023-04-12T15:50:06.191Z,50.87
2023-04-12T15:55:15.493Z,51.57
2023-04-12T16:00:23.460Z,51.59
2023-04-12T16:05:27.368Z,51.60
2023-04-12T16:10:30.597Z,51.16
2023-04-12T16:15:34.814Z,49.43
2023-04-12T16:20:37.905Z,44.86
2023-04-12T16:25:40.938Z,43.35
2023-04-12T16:30:43.975Z,43.12
2023-04-12T16:35:47.075Z,43.23
2023-04-12T16:40:50.066Z,43.61
2023-04-12T16:45:53.509Z,44.72
2023-04-12T16:50:56.862Z,45.65
2023-04-12T16:56:05.011Z,46.73
2023-04-12T17:01:08.476Z,48.57
2023-04-12T17:06:12.196Z,49.26
2023-04-12T17:11:15.762Z,49.44
2023-04-12T17:16:19.560Z,50.07
2023-04-12T17:21:23.150Z,50.78
2023-04-12T17:26:27.489Z,51.61
2023-04-12T17:31:35.973Z,52.20
2023-04-12T17:36:40.424Z,52.76
2023-04-12T17:41:44.178Z,53.46
2023-04-12T17:46:47.732Z,53.47
2023-04-12T17:51:51.392Z,53.59
2023-04-12T17:56:58.221Z,53.86
2023-04-12T18:02:05.431Z,54.04
2023-04-12T18:07:12.161Z,54.54
2023-04-12T18:12:19.138Z,54.79
2023-04-12T18:17:25.091Z,55.27
2023-04-12T18:22:30.192Z,55.66
2023-04-12T18:27:34.094Z,56.00
2023-04-12T18:32:37.785Z,56.28
2023-04-12T18:37:43.959Z,56.56
2023-04-12T19:42:54.497Z,59.98
2023-04-12T19:48:02.311Z,60.40
2023-04-12T19:53:06.556Z,60.56
2023-04-12T19:58:14.135Z,60.73
2023-04-12T20:03:18.226Z,60.79
2023-04-12T20:08:22.993Z,61.02
2023-04-12T20:13:31.107Z,61.18
2023-04-12T20:18:35.544Z,61.28
2023-04-12T20:23:39.169Z,61.41
2023-04-12T20:28:45.155Z,61.57
2023-04-12T20:33:48.729Z,61.64
2023-04-12T20:38:54.368Z,61.71
2023-04-12T20:43:59.835Z,61.95
2023-04-12T20:49:07.813Z,62.15
2023-04-12T20:54:11.816Z,62.33
2023-04-12T20:59:17.628Z,68.16
2023-04-12T21:04:22.636Z,65.01
2023-04-12T21:09:26.940Z,56.20
2023-04-12T21:14:30.677Z,52.17
2023-04-12T21:19:53.304Z,53.38
2023-04-12T21:24:57.035Z,54.50
2023-04-12T21:30:09.099Z,55.62
2023-04-12T21:35:18.703Z,56.39
2023-04-12T21:43:03.754Z,57.94
2023-04-12T21:48:08.759Z,58.66
2023-04-12T21:53:13.447Z,59.16
2023-04-12T21:58:20.495Z,59.72
2023-04-12T22:03:25.615Z,60.21
2023-04-12T22:08:34.257Z,60.63
2023-04-12T22:13:46.421Z,60.96
2023-04-12T22:18:51.251Z,61.41
2023-04-12T22:24:03.615Z,61.66
2023-04-12T22:29:08.735Z,68.45
2023-04-12T22:34:12.642Z,63.63
2023-04-12T22:42:54.442Z,52.84
2023-04-12T22:48:21.096Z,53.86
2023-04-12T22:59:06.201Z,55.81
2023-04-12T23:09:51.659Z,58.21
2023-04-12T23:15:15.630Z,58.88
2023-04-12T23:20:54.621Z,59.56
2023-04-12T23:26:14.883Z,60.16
2023-04-12T23:31:46.586Z,60.90
2023-04-12T23:43:02.782Z,61.55
2023-04-12T23:48:28.632Z,68.75
2023-04-12T23:53:54.189Z,62.96
2023-04-12T23:59:00.548Z,53.08
